sensor_id;sensor_type;location;lat;lon;timestamp;P1;durP1;ratioP1;P2;durP2;ratioP2
9334;SDS011;4706;41.844;26.082;2023-10-19T00:00:56;12.75;;;10.80;;
9334;SDS011;4706;41.844;26.082;2023-10-19T00:03:23;10.13;;;8.45;;
9334;SDS011;4706;41.844;26.082;2023-10-19T00:05:49;7.72;;;7.00;;
9334;SDS011;4706;41.844;26.082;2023-10-19T00:08:16;7.32;;;6.03;;
9334;SDS011;4706;41.844;26.082;2023-10-19T00:10:46;6.53;;;5.90;;
9334;SDS011;4706;41.844;26.082;2023-10-19T00:13:15;6.63;;;5.40;;
9334;SDS011;4706;41.844;26.082;2023-10-19T00:15:44;6.95;;;6.25;;
9334;SDS011;4706;41.844;26.082;2023-10-19T00:18:17;6.95;;;6.25;;
9334;SDS011;4706;41.844;26.082;2023-10-19T00:20:44;7.55;;;6.85;;
9334;SDS011;4706;41.844;26.082;2023-10-19T00:23:11;7.63;;;6.78;;
9334;SDS011;4706;41.844;26.082;2023-10-19T00:25:58;8.10;;;6.85;;
9334;SDS011;4706;41.844;26.082;2023-10-19T00:28:25;7.32;;;6.00;;
9334;SDS011;4706;41.844;26.082;2023-10-19T00:30:53;11.48;;;7.05;;
9334;SDS011;4706;41.844;26.082;2023-10-19T00:33:28;12.13;;;7.85;;
9334;SDS011;4706;41.844;26.082;2023-10-19T00:35:54;10.38;;;7.00;;
9334;SDS011;4706;41.844;26.082;2023-10-19T00:38:38;10.00;;;7.05;;
9334;SDS011;4706;41.844;26.082;2023-10-19T00:41:13;8.90;;;6.88;;
9334;SDS011;4706;41.844;26.082;2023-10-19T00:43:40;9.95;;;7.38;;
9334;SDS011;4706;41.844;26.082;2023-10-19T00:46:13;13.35;;;8.27;;
9334;SDS011;4706;41.844;26.082;2023-10-19T00:48:56;14.63;;;8.43;;
9334;SDS011;4706;41.844;26.082;2023-10-19T00:51:47;16.98;;;9.60;;
9334;SDS011;4706;41.844;26.082;2023-10-19T00:54:22;14.80;;;9.13;;
9334;SDS011;4706;41.844;26.082;2023-10-19T00:56:58;15.80;;;8.82;;
9334;SDS011;4706;41.844;26.082;2023-10-19T00:59:31;9.52;;;6.93;;
9334;SDS011;4706;41.844;26.082;2023-10-19T01:02:01;8.77;;;6.82;;
9334;SDS011;4706;41.844;26.082;2023-10-19T01:04:46;8.18;;;5.95;;
9334;SDS011;4706;41.844;26.082;2023-10-19T01:07:16;9.88;;;6.60;;
9334;SDS011;4706;41.844;26.082;2023-10-19T01:09:53;10.35;;;7.10;;
9334;SDS011;4706;41.844;26.082;2023-10-19T01:12:22;8.93;;;6.03;;
9334;SDS011;4706;41.844;26.082;2023-10-19T01:17:53;7.88;;;5.95;;
9334;SDS011;4706;41.844;26.082;2023-10-19T01:20:24;8.25;;;5.85;;
9334;SDS011;4706;41.844;26.082;2023-10-19T01:23:13;7.40;;;5.78;;
9334;SDS011;4706;41.844;26.082;2023-10-19T01:25:48;7.32;;;5.47;;
9334;SDS011;4706;41.844;26.082;2023-10-19T01:31:20;6.25;;;5.38;;
9334;SDS011;4706;41.844;26.082;2023-10-19T01:33:56;6.75;;;5.40;;
9334;SDS011;4706;41.844;26.082;2023-10-19T01:36:26;7.70;;;5.75;;
9334;SDS011;4706;41.844;26.082;2023-10-19T01:38:53;5.55;;;4.50;;
9334;SDS011;4706;41.844;26.082;2023-10-19T01:41:20;5.72;;;3.60;;
9334;SDS011;4706;41.844;26.082;2023-10-19T01:43:48;3.50;;;3.10;;
9334;SDS011;4706;41.844;26.082;2023-10-19T01:46:16;5.53;;;3.13;;
9334;SDS011;4706;41.844;26.082;2023-10-19T01:48:58;3.83;;;3.38;;
9334;SDS011;4706;41.844;26.082;2023-10-19T01:51:27;4.38;;;3.90;;
9334;SDS011;4706;41.844;26.082;2023-10-19T01:53:55;5.85;;;4.43;;
9334;SDS011;4706;41.844;26.082;2023-10-19T01:56:24;5.00;;;3.63;;
9334;SDS011;4706;41.844;26.082;2023-10-19T01:58:49;3.88;;;3.47;;
9334;SDS011;4706;41.844;26.082;2023-10-19T02:01:19;5.78;;;3.78;;
9334;SDS011;4706;41.844;26.082;2023-10-19T02:03:49;4.45;;;3.63;;
9334;SDS011;4706;41.844;26.082;2023-10-19T02:06:18;4.55;;;3.70;;
9334;SDS011;4706;41.844;26.082;2023-10-19T02:08:52;3.10;;;2.67;;
9334;SDS011;4706;41.844;26.082;2023-10-19T02:11:25;5.13;;;3.72;;
9334;SDS011;4706;41.844;26.082;2023-10-19T02:13:53;4.00;;;3.60;;
9334;SDS011;4706;41.844;26.082;2023-10-19T02:16:19;4.38;;;3.97;;
9334;SDS011;4706;41.844;26.082;2023-10-19T02:18:47;5.03;;;4.43;;
9334;SDS011;4706;41.844;26.082;2023-10-19T02:21:14;5.10;;;4.60;;
9334;SDS011;4706;41.844;26.082;2023-10-19T02:23:40;5.30;;;4.68;;
9334;SDS011;4706;41.844;26.082;2023-10-19T02:26:09;4.82;;;4.30;;
9334;SDS011;4706;41.844;26.082;2023-10-19T02:28:38;4.28;;;3.88;;
9334;SDS011;4706;41.844;26.082;2023-10-19T02:31:05;6.05;;;4.07;;
9334;SDS011;4706;41.844;26.082;2023-10-19T02:33:44;4.45;;;4.05;;
9334;SDS011;4706;41.844;26.082;2023-10-19T02:36:11;5.55;;;4.05;;
9334;SDS011;4706;41.844;26.082;2023-10-19T02:38:47;5.68;;;4.22;;
9334;SDS011;4706;41.844;26.082;2023-10-19T02:41:17;7.03;;;5.20;;
9334;SDS011;4706;41.844;26.082;2023-10-19T02:43:43;6.90;;;4.70;;
9334;SDS011;4706;41.844;26.082;2023-10-19T02:46:15;8.57;;;4.75;;
9334;SDS011;4706;41.844;26.082;2023-10-19T02:48:43;6.93;;;4.80;;
9334;SDS011;4706;41.844;26.082;2023-10-19T02:51:12;6.40;;;4.63;;
9334;SDS011;4706;41.844;26.082;2023-10-19T02:53:41;7.00;;;5.03;;
9334;SDS011;4706;41.844;26.082;2023-10-19T02:56:13;5.13;;;4.50;;
9334;SDS011;4706;41.844;26.082;2023-10-19T02:58:45;5.82;;;3.95;;
9334;SDS011;4706;41.844;26.082;2023-10-19T03:01:19;7.72;;;4.05;;
9334;SDS011;4706;41.844;26.082;2023-10-19T03:03:54;5.22;;;3.80;;
9334;SDS011;4706;41.844;26.082;2023-10-19T03:06:24;3.90;;;3.50;;
9334;SDS011;4706;41.844;26.082;2023-10-19T03:08:51;3.47;;;3.15;;
9334;SDS011;4706;41.844;26.082;2023-10-19T03:11:29;4.90;;;3.85;;
9334;SDS011;4706;41.844;26.082;2023-10-19T03:13:58;5.95;;;4.20;;
9334;SDS011;4706;41.844;26.082;2023-10-19T03:16:23;5.35;;;4.80;;
9334;SDS011;4706;41.844;26.082;2023-10-19T03:18:49;5.68;;;5.07;;
9334;SDS011;4706;41.844;26.082;2023-10-19T03:21:18;5.55;;;4.82;;
9334;SDS011;4706;41.844;26.082;2023-10-19T03:23:51;8.63;;;5.50;;
9334;SDS011;4706;41.844;26.082;2023-10-19T03:26:22;6.03;;;4.22;;
9334;SDS011;4706;41.844;26.082;2023-10-19T03:28:52;5.25;;;3.72;;
9334;SDS011;4706;41.844;26.082;2023-10-19T03:31:22;4.22;;;3.80;;
9334;SDS011;4706;41.844;26.082;2023-10-19T03:33:50;3.05;;;2.83;;
9334;SDS011;4706;41.844;26.082;2023-10-19T03:36:20;3.85;;;3.53;;
9334;SDS011;4706;41.844;26.082;2023-10-19T03:38:49;9.00;;;4.85;;
9334;SDS011;4706;41.844;26.082;2023-10-19T03:41:21;6.35;;;4.65;;
9334;SDS011;4706;41.844;26.082;2023-10-19T03:43:51;7.32;;;4.13;;
9334;SDS011;4706;41.844;26.082;2023-10-19T03:46:19;5.88;;;4.53;;
9334;SDS011;4706;41.844;26.082;2023-10-19T03:48:58;5.00;;;4.07;;
9334;SDS011;4706;41.844;26.082;2023-10-19T03:51:28;6.28;;;4.15;;
9334;SDS011;4706;41.844;26.082;2023-10-19T03:54:05;6.88;;;6.18;;
9334;SDS011;4706;41.844;26.082;2023-10-19T03:56:45;9.30;;;8.10;;
9334;SDS011;4706;41.844;26.082;2023-10-19T03:59:13;11.15;;;9.52;;
9334;SDS011;4706;41.844;26.082;2023-10-19T04:01:41;15.10;;;10.68;;
9334;SDS011;4706;41.844;26.082;2023-10-19T04:04:09;10.90;;;9.27;;
9334;SDS011;4706;41.844;26.082;2023-10-19T04:06:35;11.52;;;9.75;;
9334;SDS011;4706;41.844;26.082;2023-10-19T04:09:02;11.10;;;9.68;;
9334;SDS011;4706;41.844;26.082;2023-10-19T04:11:29;14.63;;;9.10;;
9334;SDS011;4706;41.844;26.082;2023-10-19T04:14:00;14.07;;;7.32;;
9334;SDS011;4706;41.844;26.082;2023-10-19T04:16:29;11.95;;;7.30;;
9334;SDS011;4706;41.844;26.082;2023-10-19T04:18:56;13.27;;;6.20;;
9334;SDS011;4706;41.844;26.082;2023-10-19T04:21:23;9.68;;;5.80;;
9334;SDS011;4706;41.844;26.082;2023-10-19T04:23:48;14.25;;;6.28;;
9334;SDS011;4706;41.844;26.082;2023-10-19T04:26:14;16.52;;;9.00;;
9334;SDS011;4706;41.844;26.082;2023-10-19T04:28:43;9.65;;;4.93;;
9334;SDS011;4706;41.844;26.082;2023-10-19T04:31:18;6.20;;;5.10;;
9334;SDS011;4706;41.844;26.082;2023-10-19T04:33:44;8.23;;;4.97;;
9334;SDS011;4706;41.844;26.082;2023-10-19T04:36:14;8.88;;;6.97;;
9334;SDS011;4706;41.844;26.082;2023-10-19T04:38:41;7.68;;;5.82;;
9334;SDS011;4706;41.844;26.082;2023-10-19T04:41:07;7.18;;;5.40;;
9334;SDS011;4706;41.844;26.082;2023-10-19T04:43:37;10.52;;;6.25;;
9334;SDS011;4706;41.844;26.082;2023-10-19T04:46:07;18.42;;;11.05;;
9334;SDS011;4706;41.844;26.082;2023-10-19T04:48:36;21.35;;;13.02;;
9334;SDS011;4706;41.844;26.082;2023-10-19T04:51:05;22.15;;;13.27;;
9334;SDS011;4706;41.844;26.082;2023-10-19T04:53:31;18.73;;;12.57;;
9334;SDS011;4706;41.844;26.082;2023-10-19T04:55:57;18.48;;;11.18;;
9334;SDS011;4706;41.844;26.082;2023-10-19T04:58:26;14.95;;;8.40;;
9334;SDS011;4706;41.844;26.082;2023-10-19T05:00:53;14.05;;;7.75;;
9334;SDS011;4706;41.844;26.082;2023-10-19T05:03:19;20.95;;;10.32;;
9334;SDS011;4706;41.844;26.082;2023-10-19T05:05:44;13.35;;;7.13;;
9334;SDS011;4706;41.844;26.082;2023-10-19T05:08:10;17.20;;;8.35;;
9334;SDS011;4706;41.844;26.082;2023-10-19T05:10:36;14.80;;;6.80;;
9334;SDS011;4706;41.844;26.082;2023-10-19T05:13:02;16.33;;;6.70;;
9334;SDS011;4706;41.844;26.082;2023-10-19T05:15:28;17.45;;;7.05;;
9334;SDS011;4706;41.844;26.082;2023-10-19T05:17:54;13.40;;;7.75;;
9334;SDS011;4706;41.844;26.082;2023-10-19T05:20:20;12.45;;;6.82;;
9334;SDS011;4706;41.844;26.082;2023-10-19T05:22:46;15.13;;;7.22;;
9334;SDS011;4706;41.844;26.082;2023-10-19T05:25:12;14.82;;;7.28;;
9334;SDS011;4706;41.844;26.082;2023-10-19T05:27:38;14.98;;;7.82;;
9334;SDS011;4706;41.844;26.082;2023-10-19T05:30:04;17.65;;;8.13;;
9334;SDS011;4706;41.844;26.082;2023-10-19T05:32:30;7.85;;;5.13;;
9334;SDS011;4706;41.844;26.082;2023-10-19T05:34:56;5.10;;;4.70;;
9334;SDS011;4706;41.844;26.082;2023-10-19T05:37:22;7.43;;;5.50;;
9334;SDS011;4706;41.844;26.082;2023-10-19T05:39:48;9.98;;;5.43;;
9334;SDS011;4706;41.844;26.082;2023-10-19T05:42:17;13.50;;;6.43;;
9334;SDS011;4706;41.844;26.082;2023-10-19T05:44:42;10.13;;;5.15;;
9334;SDS011;4706;41.844;26.082;2023-10-19T05:47:08;12.75;;;5.38;;
9334;SDS011;4706;41.844;26.082;2023-10-19T05:49:34;6.88;;;4.28;;
9334;SDS011;4706;41.844;26.082;2023-10-19T05:51:59;5.45;;;4.35;;
9334;SDS011;4706;41.844;26.082;2023-10-19T05:54:25;10.73;;;8.70;;
9334;SDS011;4706;41.844;26.082;2023-10-19T05:56:52;6.70;;;5.32;;
9334;SDS011;4706;41.844;26.082;2023-10-19T05:59:17;6.18;;;5.18;;
9334;SDS011;4706;41.844;26.082;2023-10-19T06:01:43;8.00;;;6.15;;
9334;SDS011;4706;41.844;26.082;2023-10-19T06:04:12;9.15;;;6.13;;
9334;SDS011;4706;41.844;26.082;2023-10-19T06:06:38;8.30;;;6.57;;
9334;SDS011;4706;41.844;26.082;2023-10-19T06:09:07;9.38;;;6.68;;
9334;SDS011;4706;41.844;26.082;2023-10-19T06:11:36;55.05;;;11.30;;
9334;SDS011;4706;41.844;26.082;2023-10-19T06:14:07;12.75;;;8.90;;
9334;SDS011;4706;41.844;26.082;2023-10-19T06:16:33;11.43;;;7.65;;
9334;SDS011;4706;41.844;26.082;2023-10-19T06:18:59;10.43;;;6.80;;
9334;SDS011;4706;41.844;26.082;2023-10-19T06:21:25;10.13;;;6.75;;
9334;SDS011;4706;41.844;26.082;2023-10-19T06:23:50;7.72;;;5.80;;
9334;SDS011;4706;41.844;26.082;2023-10-19T06:26:17;12.05;;;7.32;;
9334;SDS011;4706;41.844;26.082;2023-10-19T06:28:43;16.42;;;7.18;;
9334;SDS011;4706;41.844;26.082;2023-10-19T06:31:08;4.40;;;4.00;;
9334;SDS011;4706;41.844;26.082;2023-10-19T06:33:34;4.38;;;3.97;;
9334;SDS011;4706;41.844;26.082;2023-10-19T06:36:01;5.10;;;4.60;;
9334;SDS011;4706;41.844;26.082;2023-10-19T06:38:28;9.02;;;5.43;;
9334;SDS011;4706;41.844;26.082;2023-10-19T06:40:54;10.07;;;9.05;;
9334;SDS011;4706;41.844;26.082;2023-10-19T06:43:21;7.25;;;6.05;;
9334;SDS011;4706;41.844;26.082;2023-10-19T06:45:49;6.20;;;5.63;;
9334;SDS011;4706;41.844;26.082;2023-10-19T06:48:15;8.27;;;7.07;;
9334;SDS011;4706;41.844;26.082;2023-10-19T06:50:40;7.90;;;7.10;;
9334;SDS011;4706;41.844;26.082;2023-10-19T06:53:06;10.55;;;6.97;;
9334;SDS011;4706;41.844;26.082;2023-10-19T06:55:31;9.13;;;6.50;;
9334;SDS011;4706;41.844;26.082;2023-10-19T06:57:58;7.20;;;6.60;;
9334;SDS011;4706;41.844;26.082;2023-10-19T07:00:24;7.88;;;7.07;;
9334;SDS011;4706;41.844;26.082;2023-10-19T07:02:57;8.23;;;7.53;;
9334;SDS011;4706;41.844;26.082;2023-10-19T07:05:25;8.80;;;7.97;;
9334;SDS011;4706;41.844;26.082;2023-10-19T07:07:55;8.32;;;7.50;;
9334;SDS011;4706;41.844;26.082;2023-10-19T07:10:22;8.82;;;7.93;;
9334;SDS011;4706;41.844;26.082;2023-10-19T07:12:51;8.73;;;7.82;;
9334;SDS011;4706;41.844;26.082;2023-10-19T07:15:18;9.73;;;8.75;;
9334;SDS011;4706;41.844;26.082;2023-10-19T07:17:45;17.60;;;9.52;;
9334;SDS011;4706;41.844;26.082;2023-10-19T07:20:13;15.63;;;9.57;;
9334;SDS011;4706;41.844;26.082;2023-10-19T07:23:01;7.85;;;6.43;;
9334;SDS011;4706;41.844;26.082;2023-10-19T07:25:33;10.50;;;7.25;;
9334;SDS011;4706;41.844;26.082;2023-10-19T07:28:17;8.57;;;6.15;;
9334;SDS011;4706;41.844;26.082;2023-10-19T07:30:43;8.38;;;6.70;;
9334;SDS011;4706;41.844;26.082;2023-10-19T07:33:09;7.28;;;6.50;;
9334;SDS011;4706;41.844;26.082;2023-10-19T07:35:36;6.85;;;6.25;;
9334;SDS011;4706;41.844;26.082;2023-10-19T07:38:07;5.35;;;4.85;;
9334;SDS011;4706;41.844;26.082;2023-10-19T07:40:34;5.85;;;4.75;;
9334;SDS011;4706;41.844;26.082;2023-10-19T07:43:00;5.28;;;4.72;;
9334;SDS011;4706;41.844;26.082;2023-10-19T07:45:26;6.72;;;6.10;;
9334;SDS011;4706;41.844;26.082;2023-10-19T07:47:52;6.80;;;5.80;;
9334;SDS011;4706;41.844;26.082;2023-10-19T07:50:17;7.30;;;4.70;;
9334;SDS011;4706;41.844;26.082;2023-10-19T07:52:46;7.55;;;4.88;;
9334;SDS011;4706;41.844;26.082;2023-10-19T07:55:14;6.07;;;5.47;;
9334;SDS011;4706;41.844;26.082;2023-10-19T07:57:44;7.75;;;5.95;;
9334;SDS011;4706;41.844;26.082;2023-10-19T08:00:10;8.15;;;5.65;;
9334;SDS011;4706;41.844;26.082;2023-10-19T08:02:39;6.18;;;5.43;;
9334;SDS011;4706;41.844;26.082;2023-10-19T08:05:07;7.05;;;6.15;;
9334;SDS011;4706;41.844;26.082;2023-10-19T08:07:33;7.32;;;6.43;;
9334;SDS011;4706;41.844;26.082;2023-10-19T08:10:04;8.82;;;7.88;;
9334;SDS011;4706;41.844;26.082;2023-10-19T08:12:31;7.63;;;6.63;;
9334;SDS011;4706;41.844;26.082;2023-10-19T08:14:58;8.18;;;6.80;;
9334;SDS011;4706;41.844;26.082;2023-10-19T08:17:24;7.78;;;6.95;;
9334;SDS011;4706;41.844;26.082;2023-10-19T08:19:50;8.52;;;6.60;;
9334;SDS011;4706;41.844;26.082;2023-10-19T08:22:15;9.07;;;6.55;;
9334;SDS011;4706;41.844;26.082;2023-10-19T08:24:41;7.45;;;5.80;;
9334;SDS011;4706;41.844;26.082;2023-10-19T08:27:11;7.35;;;6.38;;
9334;SDS011;4706;41.844;26.082;2023-10-19T08:29:38;7.20;;;6.40;;
9334;SDS011;4706;41.844;26.082;2023-10-19T08:32:04;6.93;;;6.22;;
9334;SDS011;4706;41.844;26.082;2023-10-19T08:34:33;7.18;;;6.03;;
9334;SDS011;4706;41.844;26.082;2023-10-19T08:37:02;8.02;;;7.22;;
9334;SDS011;4706;41.844;26.082;2023-10-19T08:39:29;8.20;;;6.68;;
9334;SDS011;4706;41.844;26.082;2023-10-19T08:42:04;8.05;;;7.22;;
9334;SDS011;4706;41.844;26.082;2023-10-19T08:44:30;7.85;;;6.93;;
9334;SDS011;4706;41.844;26.082;2023-10-19T08:46:56;6.88;;;6.15;;
9334;SDS011;4706;41.844;26.082;2023-10-19T08:49:25;8.40;;;7.60;;
9334;SDS011;4706;41.844;26.082;2023-10-19T08:51:54;7.28;;;6.57;;
9334;SDS011;4706;41.844;26.082;2023-10-19T08:54:21;9.63;;;7.38;;
9334;SDS011;4706;41.844;26.082;2023-10-19T08:56:46;9.02;;;7.93;;
9334;SDS011;4706;41.844;26.082;2023-10-19T08:59:15;10.20;;;8.10;;
9334;SDS011;4706;41.844;26.082;2023-10-19T09:01:40;7.32;;;6.45;;
9334;SDS011;4706;41.844;26.082;2023-10-19T09:04:12;6.57;;;5.95;;
9334;SDS011;4706;41.844;26.082;2023-10-19T09:06:44;5.90;;;5.30;;
9334;SDS011;4706;41.844;26.082;2023-10-19T09:09:13;7.93;;;5.63;;
9334;SDS011;4706;41.844;26.082;2023-10-19T09:11:44;8.07;;;6.63;;
9334;SDS011;4706;41.844;26.082;2023-10-19T09:14:12;6.70;;;5.30;;
9334;SDS011;4706;41.844;26.082;2023-10-19T09:16:38;5.60;;;4.97;;
9334;SDS011;4706;41.844;26.082;2023-10-19T09:19:21;5.20;;;4.70;;
9334;SDS011;4706;41.844;26.082;2023-10-19T09:22:01;5.45;;;4.95;;
9334;SDS011;4706;41.844;26.082;2023-10-19T09:24:33;8.25;;;5.40;;
9334;SDS011;4706;41.844;26.082;2023-10-19T09:26:59;8.43;;;5.68;;
9334;SDS011;4706;41.844;26.082;2023-10-19T09:29:27;6.38;;;5.43;;
9334;SDS011;4706;41.844;26.082;2023-10-19T09:31:53;9.60;;;8.63;;
9334;SDS011;4706;41.844;26.082;2023-10-19T09:34:23;6.15;;;5.50;;
9334;SDS011;4706;41.844;26.082;2023-10-19T09:36:56;5.70;;;5.20;;
9334;SDS011;4706;41.844;26.082;2023-10-19T09:39:22;5.68;;;4.88;;
9334;SDS011;4706;41.844;26.082;2023-10-19T09:41:49;6.05;;;5.55;;
9334;SDS011;4706;41.844;26.082;2023-10-19T09:44:17;6.05;;;4.70;;
9334;SDS011;4706;41.844;26.082;2023-10-19T09:46:49;7.28;;;5.80;;
9334;SDS011;4706;41.844;26.082;2023-10-19T09:49:18;8.40;;;5.82;;
9334;SDS011;4706;41.844;26.082;2023-10-19T09:51:44;5.68;;;5.10;;
9334;SDS011;4706;41.844;26.082;2023-10-19T09:54:17;8.13;;;5.70;;
9334;SDS011;4706;41.844;26.082;2023-10-19T09:56:52;6.18;;;4.95;;
9334;SDS011;4706;41.844;26.082;2023-10-19T09:59:32;5.88;;;5.10;;
9334;SDS011;4706;41.844;26.082;2023-10-19T10:02:12;6.75;;;5.78;;
9334;SDS011;4706;41.844;26.082;2023-10-19T10:04:39;9.65;;;5.15;;
9334;SDS011;4706;41.844;26.082;2023-10-19T10:07:12;10.68;;;6.25;;
9334;SDS011;4706;41.844;26.082;2023-10-19T10:09:39;4.95;;;4.53;;
9334;SDS011;4706;41.844;26.082;2023-10-19T10:12:15;4.60;;;4.20;;
9334;SDS011;4706;41.844;26.082;2023-10-19T10:15:10;6.85;;;5.97;;
9334;SDS011;4706;41.844;26.082;2023-10-19T10:17:36;6.25;;;4.18;;
9334;SDS011;4706;41.844;26.082;2023-10-19T10:22:42;4.50;;;3.92;;
9334;SDS011;4706;41.844;26.082;2023-10-19T10:25:25;3.88;;;3.53;;
9334;SDS011;4706;41.844;26.082;2023-10-19T10:27:54;6.13;;;3.78;;
9334;SDS011;4706;41.844;26.082;2023-10-19T10:30:20;4.40;;;4.00;;
9334;SDS011;4706;41.844;26.082;2023-10-19T10:32:53;4.68;;;4.18;;
9334;SDS011;4706;41.844;26.082;2023-10-19T10:38:02;5.50;;;4.53;;
9334;SDS011;4706;41.844;26.082;2023-10-19T10:40:31;6.03;;;4.35;;
9334;SDS011;4706;41.844;26.082;2023-10-19T10:43:06;5.78;;;4.05;;
9334;SDS011;4706;41.844;26.082;2023-10-19T10:45:32;4.60;;;3.67;;
9334;SDS011;4706;41.844;26.082;2023-10-19T10:47:58;6.25;;;3.95;;
9334;SDS011;4706;41.844;26.082;2023-10-19T10:50:26;6.70;;;3.25;;
9334;SDS011;4706;41.844;26.082;2023-10-19T10:52:53;3.63;;;3.22;;
9334;SDS011;4706;41.844;26.082;2023-10-19T10:55:22;4.07;;;2.78;;
9334;SDS011;4706;41.844;26.082;2023-10-19T10:57:50;3.15;;;2.85;;
9334;SDS011;4706;41.844;26.082;2023-10-19T11:00:16;4.95;;;4.35;;
9334;SDS011;4706;41.844;26.082;2023-10-19T11:02:46;4.60;;;3.10;;
9334;SDS011;4706;41.844;26.082;2023-10-19T11:05:15;4.05;;;2.90;;
9334;SDS011;4706;41.844;26.082;2023-10-19T11:07:46;3.78;;;3.00;;
9334;SDS011;4706;41.844;26.082;2023-10-19T11:10:29;6.82;;;2.50;;
9334;SDS011;4706;41.844;26.082;2023-10-19T11:13:02;2.75;;;2.40;;
9334;SDS011;4706;41.844;26.082;2023-10-19T11:15:29;3.83;;;2.90;;
9334;SDS011;4706;41.844;26.082;2023-10-19T11:17:54;2.88;;;2.60;;
9334;SDS011;4706;41.844;26.082;2023-10-19T11:20:21;2.75;;;2.30;;
9334;SDS011;4706;41.844;26.082;2023-10-19T11:22:48;5.72;;;2.60;;
9334;SDS011;4706;41.844;26.082;2023-10-19T11:25:33;4.85;;;3.70;;
9334;SDS011;4706;41.844;26.082;2023-10-19T11:27:59;4.60;;;3.38;;
9334;SDS011;4706;41.844;26.082;2023-10-19T11:30:29;3.20;;;2.35;;
9334;SDS011;4706;41.844;26.082;2023-10-19T11:32:56;2.55;;;2.33;;
9334;SDS011;4706;41.844;26.082;2023-10-19T11:35:23;3.25;;;2.95;;
9334;SDS011;4706;41.844;26.082;2023-10-19T11:37:50;3.30;;;2.67;;
9334;SDS011;4706;41.844;26.082;2023-10-19T11:40:20;2.30;;;2.10;;
9334;SDS011;4706;41.844;26.082;2023-10-19T11:42:47;3.08;;;2.42;;
9334;SDS011;4706;41.844;26.082;2023-10-19T11:45:13;2.83;;;2.42;;
9334;SDS011;4706;41.844;26.082;2023-10-19T11:47:39;2.83;;;2.55;;
9334;SDS011;4706;41.844;26.082;2023-10-19T11:50:05;3.47;;;2.63;;
9334;SDS011;4706;41.844;26.082;2023-10-19T11:52:31;2.47;;;2.28;;
9334;SDS011;4706;41.844;26.082;2023-10-19T11:54:56;3.30;;;2.40;;
9334;SDS011;4706;41.844;26.082;2023-10-19T11:57:23;3.65;;;3.17;;
9334;SDS011;4706;41.844;26.082;2023-10-19T11:59:50;3.50;;;2.63;;
9334;SDS011;4706;41.844;26.082;2023-10-19T12:02:20;2.58;;;2.30;;
9334;SDS011;4706;41.844;26.082;2023-10-19T12:04:46;4.53;;;2.47;;
9334;SDS011;4706;41.844;26.082;2023-10-19T12:07:12;2.78;;;2.28;;
9334;SDS011;4706;41.844;26.082;2023-10-19T12:09:37;3.92;;;2.75;;
9334;SDS011;4706;41.844;26.082;2023-10-19T12:12:09;2.72;;;2.35;;
9334;SDS011;4706;41.844;26.082;2023-10-19T12:14:37;2.53;;;2.28;;
9334;SDS011;4706;41.844;26.082;2023-10-19T12:17:03;3.00;;;2.58;;
9334;SDS011;4706;41.844;26.082;2023-10-19T12:19:31;3.10;;;2.40;;
9334;SDS011;4706;41.844;26.082;2023-10-19T12:21:57;3.08;;;2.50;;
9334;SDS011;4706;41.844;26.082;2023-10-19T12:24:23;2.90;;;2.60;;
9334;SDS011;4706;41.844;26.082;2023-10-19T12:26:49;3.28;;;2.30;;
9334;SDS011;4706;41.844;26.082;2023-10-19T12:29:16;2.45;;;2.25;;
9334;SDS011;4706;41.844;26.082;2023-10-19T12:31:42;2.67;;;2.47;;
9334;SDS011;4706;41.844;26.082;2023-10-19T12:34:08;2.75;;;2.40;;
9334;SDS011;4706;41.844;26.082;2023-10-19T12:36:36;3.28;;;2.80;;
9334;SDS011;4706;41.844;26.082;2023-10-19T12:39:02;2.60;;;2.40;;
9334;SDS011;4706;41.844;26.082;2023-10-19T12:41:31;4.05;;;2.75;;
9334;SDS011;4706;41.844;26.082;2023-10-19T12:43:57;2.55;;;2.33;;
9334;SDS011;4706;41.844;26.082;2023-10-19T12:46:23;5.07;;;2.90;;
9334;SDS011;4706;41.844;26.082;2023-10-19T12:48:52;2.72;;;2.40;;
9334;SDS011;4706;41.844;26.082;2023-10-19T12:51:21;3.10;;;2.83;;
9334;SDS011;4706;41.844;26.082;2023-10-19T12:53:51;3.22;;;2.83;;
9334;SDS011;4706;41.844;26.082;2023-10-19T12:56:20;2.92;;;2.58;;
9334;SDS011;4706;41.844;26.082;2023-10-19T12:58:49;4.32;;;2.53;;
9334;SDS011;4706;41.844;26.082;2023-10-19T13:01:15;2.40;;;2.20;;
9334;SDS011;4706;41.844;26.082;2023-10-19T13:03:45;3.90;;;3.55;;
9334;SDS011;4706;41.844;26.082;2023-10-19T13:06:12;3.72;;;3.10;;
9334;SDS011;4706;41.844;26.082;2023-10-19T13:08:38;2.50;;;2.30;;
9334;SDS011;4706;41.844;26.082;2023-10-19T13:11:07;2.95;;;2.42;;
9334;SDS011;4706;41.844;26.082;2023-10-19T13:13:35;5.50;;;3.72;;
9334;SDS011;4706;41.844;26.082;2023-10-19T13:16:04;4.65;;;3.88;;
9334;SDS011;4706;41.844;26.082;2023-10-19T13:18:34;3.83;;;3.53;;
9334;SDS011;4706;41.844;26.082;2023-10-19T13:21:01;3.17;;;2.90;;
9334;SDS011;4706;41.844;26.082;2023-10-19T13:23:32;3.08;;;2.80;;
9334;SDS011;4706;41.844;26.082;2023-10-19T13:25:58;11.10;;;9.90;;
9334;SDS011;4706;41.844;26.082;2023-10-19T13:28:40;3.00;;;2.80;;
9334;SDS011;4706;41.844;26.082;2023-10-19T13:31:05;3.17;;;2.80;;
9334;SDS011;4706;41.844;26.082;2023-10-19T13:33:34;3.13;;;2.85;;
9334;SDS011;4706;41.844;26.082;2023-10-19T13:36:00;3.15;;;2.50;;
9334;SDS011;4706;41.844;26.082;2023-10-19T13:38:31;2.88;;;2.60;;
9334;SDS011;4706;41.844;26.082;2023-10-19T13:40:56;2.60;;;2.40;;
9334;SDS011;4706;41.844;26.082;2023-10-19T13:43:22;2.75;;;2.55;;
9334;SDS011;4706;41.844;26.082;2023-10-19T13:45:47;3.15;;;2.92;;
9334;SDS011;4706;41.844;26.082;2023-10-19T13:48:14;4.00;;;3.70;;
9334;SDS011;4706;41.844;26.082;2023-10-19T13:50:49;3.10;;;2.90;;
9334;SDS011;4706;41.844;26.082;2023-10-19T13:53:15;2.90;;;2.60;;
9334;SDS011;4706;41.844;26.082;2023-10-19T13:55:41;3.92;;;2.90;;
9334;SDS011;4706;41.844;26.082;2023-10-19T13:58:08;3.08;;;2.58;;
9334;SDS011;4706;41.844;26.082;2023-10-19T14:00:34;2.75;;;2.55;;
9334;SDS011;4706;41.844;26.082;2023-10-19T14:03:04;3.25;;;2.47;;
9334;SDS011;4706;41.844;26.082;2023-10-19T14:05:30;4.53;;;2.80;;
9334;SDS011;4706;41.844;26.082;2023-10-19T14:08:02;2.95;;;2.63;;
9334;SDS011;4706;41.844;26.082;2023-10-19T14:10:31;6.72;;;2.80;;
9334;SDS011;4706;41.844;26.082;2023-10-19T14:12:58;2.97;;;2.78;;
9334;SDS011;4706;41.844;26.082;2023-10-19T14:15:24;3.50;;;3.20;;
9334;SDS011;4706;41.844;26.082;2023-10-19T14:17:55;3.60;;;2.90;;
9334;SDS011;4706;41.844;26.082;2023-10-19T14:20:24;3.35;;;3.05;;
9334;SDS011;4706;41.844;26.082;2023-10-19T14:22:51;2.80;;;2.60;;
9334;SDS011;4706;41.844;26.082;2023-10-19T14:25:20;3.72;;;2.92;;
9334;SDS011;4706;41.844;26.082;2023-10-19T14:27:47;3.33;;;2.75;;
9334;SDS011;4706;41.844;26.082;2023-10-19T14:30:21;2.90;;;2.50;;
9334;SDS011;4706;41.844;26.082;2023-10-19T14:32:47;5.25;;;3.60;;
9334;SDS011;4706;41.844;26.082;2023-10-19T14:35:18;2.83;;;2.60;;
9334;SDS011;4706;41.844;26.082;2023-10-19T14:37:48;3.33;;;2.65;;
9334;SDS011;4706;41.844;26.082;2023-10-19T14:40:17;2.90;;;2.67;;
9334;SDS011;4706;41.844;26.082;2023-10-19T14:42:46;3.47;;;3.05;;
9334;SDS011;4706;41.844;26.082;2023-10-19T14:45:13;3.90;;;2.92;;
9334;SDS011;4706;41.844;26.082;2023-10-19T14:47:41;4.78;;;3.50;;
9334;SDS011;4706;41.844;26.082;2023-10-19T14:50:11;3.00;;;2.80;;
9334;SDS011;4706;41.844;26.082;2023-10-19T14:52:43;6.20;;;5.30;;
9334;SDS011;4706;41.844;26.082;2023-10-19T14:55:11;3.92;;;3.17;;
9334;SDS011;4706;41.844;26.082;2023-10-19T14:57:37;4.28;;;3.60;;
9334;SDS011;4706;41.844;26.082;2023-10-19T15:00:05;4.63;;;3.65;;
9334;SDS011;4706;41.844;26.082;2023-10-19T15:02:50;4.05;;;3.67;;
9334;SDS011;4706;41.844;26.082;2023-10-19T15:05:20;3.58;;;2.80;;
9334;SDS011;4706;41.844;26.082;2023-10-19T15:07:48;3.55;;;2.97;;
9334;SDS011;4706;41.844;26.082;2023-10-19T15:12:55;4.07;;;2.72;;
9334;SDS011;4706;41.844;26.082;2023-10-19T15:15:24;3.13;;;2.80;;
9334;SDS011;4706;41.844;26.082;2023-10-19T15:17:50;3.30;;;2.53;;
9334;SDS011;4706;41.844;26.082;2023-10-19T15:20:18;4.03;;;2.85;;
9334;SDS011;4706;41.844;26.082;2023-10-19T15:22:45;3.45;;;2.70;;